sensor_id;sensor_type;location;lat;lon;timestamp;temperature;humidity
7588;DHT22;3835;48.850;8.938;2022-07-29T00:01:39;18.60;99.90
7588;DHT22;3835;48.850;8.938;2022-07-29T00:04:05;18.50;99.90
7588;DHT22;3835;48.850;8.938;2022-07-29T00:06:32;18.60;99.90
7588;DHT22;3835;48.850;8.938;2022-07-29T00:09:00;18.50;99.90
7588;DHT22;3835;48.850;8.938;2022-07-29T00:11:27;18.50;99.90
7588;DHT22;3835;48.850;8.938;2022-07-29T00:13:54;18.40;99.90
7588;DHT22;3835;48.850;8.938;2022-07-29T00:16:21;18.30;99.90
7588;DHT22;3835;48.850;8.938;2022-07-29T00:18:48;18.30;99.90
7588;DHT22;3835;48.850;8.938;2022-07-29T00:21:15;18.20;99.90
7588;DHT22;3835;48.850;8.938;2022-07-29T00:23:42;18.20;99.90
7588;DHT22;3835;48.850;8.938;2022-07-29T00:26:10;18.10;99.90
7588;DHT22;3835;48.850;8.938;2022-07-29T00:28:37;18.10;99.90
7588;DHT22;3835;48.850;8.938;2022-07-29T00:31:04;18.10;99.90
7588;DHT22;3835;48.850;8.938;2022-07-29T00:33:31;18.10;99.90
7588;DHT22;3835;48.850;8.938;2022-07-29T00:35:57;18.10;99.90
7588;DHT22;3835;48.850;8.938;2022-07-29T00:38:23;18.10;99.90
7588;DHT22;3835;48.850;8.938;2022-07-29T00:40:50;18.10;99.90
7588;DHT22;3835;48.850;8.938;2022-07-29T00:43:18;18.10;99.90
7588;DHT22;3835;48.850;8.938;2022-07-29T00:45:45;18.10;99.90
7588;DHT22;3835;48.850;8.938;2022-07-29T00:48:12;18.10;99.90
7588;DHT22;3835;48.850;8.938;2022-07-29T00:50:39;18.20;99.90
7588;DHT22;3835;48.850;8.938;2022-07-29T00:53:07;18.20;99.90
7588;DHT22;3835;48.850;8.938;2022-07-29T00:55:34;18.20;99.90
7588;DHT22;3835;48.850;8.938;2022-07-29T00:58:01;18.20;99.90
7588;DHT22;3835;48.850;8.938;2022-07-29T01:00:30;18.20;99.90
7588;DHT22;3835;48.850;8.938;2022-07-29T01:02:57;18.20;99.90
7588;DHT22;3835;48.850;8.938;2022-07-29T01:05:26;18.10;99.90
7588;DHT22;3835;48.850;8.938;2022-07-29T01:07:54;18.20;99.90
7588;DHT22;3835;48.850;8.938;2022-07-29T01:10:23;18.20;99.90
7588;DHT22;3835;48.850;8.938;2022-07-29T01:12:52;18.10;99.90
7588;DHT22;3835;48.850;8.938;2022-07-29T01:15:20;18.10;99.90
7588;DHT22;3835;48.850;8.938;2022-07-29T01:17:54;18.20;99.90
7588;DHT22;3835;48.850;8.938;2022-07-29T01:20:26;18.20;99.90
7588;DHT22;3835;48.850;8.938;2022-07-29T01:26:22;18.20;99.90
7588;DHT22;3835;48.850;8.938;2022-07-29T01:29:02;18.20;99.90
7588;DHT22;3835;48.850;8.938;2022-07-29T01:31:35;18.30;99.90
7588;DHT22;3835;48.850;8.938;2022-07-29T01:34:06;18.30;99.90
7588;DHT22;3835;48.850;8.938;2022-07-29T01:36:40;18.30;99.90
7588;DHT22;3835;48.850;8.938;2022-07-29T01:39:12;18.30;99.90
7588;DHT22;3835;48.850;8.938;2022-07-29T01:41:46;18.30;99.90
7588;DHT22;3835;48.850;8.938;2022-07-29T01:44:20;18.40;99.90
7588;DHT22;3835;48.850;8.938;2022-07-29T01:46:51;18.30;99.90
7588;DHT22;3835;48.850;8.938;2022-07-29T01:49:22;18.30;99.90
7588;DHT22;3835;48.850;8.938;2022-07-29T01:51:52;18.30;99.90
7588;DHT22;3835;48.850;8.938;2022-07-29T01:54:23;18.30;99.90
7588;DHT22;3835;48.850;8.938;2022-07-29T01:56:53;18.30;99.90
7588;DHT22;3835;48.850;8.938;2022-07-29T01:59:23;18.30;99.90
7588;DHT22;3835;48.850;8.938;2022-07-29T02:01:55;18.30;99.90
7588;DHT22;3835;48.850;8.938;2022-07-29T02:04:24;18.30;99.90
7588;DHT22;3835;48.850;8.938;2022-07-29T02:06:54;18.40;99.90
7588;DHT22;3835;48.850;8.938;2022-07-29T02:09:22;18.30;99.90
7588;DHT22;3835;48.850;8.938;2022-07-29T02:11:53;18.30;99.90
7588;DHT22;3835;48.850;8.938;2022-07-29T02:14:22;18.30;99.90
7588;DHT22;3835;48.850;8.938;2022-07-29T02:16:52;18.30;99.90
7588;DHT22;3835;48.850;8.938;2022-07-29T02:19:22;18.30;99.90
7588;DHT22;3835;48.850;8.938;2022-07-29T02:21:51;18.20;99.90
7588;DHT22;3835;48.850;8.938;2022-07-29T02:24:21;18.20;99.90
7588;DHT22;3835;48.850;8.938;2022-07-29T02:26:49;18.20;99.90
7588;DHT22;3835;48.850;8.938;2022-07-29T02:29:19;18.10;99.90
7588;DHT22;3835;48.850;8.938;2022-07-29T02:31:48;18.10;99.90
7588;DHT22;3835;48.850;8.938;2022-07-29T02:34:17;18.10;99.90
7588;DHT22;3835;48.850;8.938;2022-07-29T02:36:45;18.00;99.90
7588;DHT22;3835;48.850;8.938;2022-07-29T02:39:13;18.00;99.90
7588;DHT22;3835;48.850;8.938;2022-07-29T02:41:43;18.00;99.90
7588;DHT22;3835;48.850;8.938;2022-07-29T02:44:12;18.00;99.90
7588;DHT22;3835;48.850;8.938;2022-07-29T02:46:45;18.00;99.90
7588;DHT22;3835;48.850;8.938;2022-07-29T02:49:18;18.00;99.90
7588;DHT22;3835;48.850;8.938;2022-07-29T02:51:48;18.00;99.90
7588;DHT22;3835;48.850;8.938;2022-07-29T02:54:22;17.90;99.90
7588;DHT22;3835;48.850;8.938;2022-07-29T02:56:51;17.90;99.90
7588;DHT22;3835;48.850;8.938;2022-07-29T02:59:24;17.90;99.90
7588;DHT22;3835;48.850;8.938;2022-07-29T03:01:52;17.80;99.90
7588;DHT22;3835;48.850;8.938;2022-07-29T03:04:23;17.70;99.90
7588;DHT22;3835;48.850;8.938;2022-07-29T03:06:51;17.70;99.90
7588;DHT22;3835;48.850;8.938;2022-07-29T03:09:19;17.70;99.90
7588;DHT22;3835;48.850;8.938;2022-07-29T03:11:47;17.70;99.90
7588;DHT22;3835;48.850;8.938;2022-07-29T03:14:14;17.60;99.90
7588;DHT22;3835;48.850;8.938;2022-07-29T03:16:42;17.60;99.90
7588;DHT22;3835;48.850;8.938;2022-07-29T03:19:09;17.70;99.90
7588;DHT22;3835;48.850;8.938;2022-07-29T03:21:37;17.60;99.90
7588;DHT22;3835;48.850;8.938;2022-07-29T03:24:04;17.60;99.90
7588;DHT22;3835;48.850;8.938;2022-07-29T03:26:31;17.60;99.90
7588;DHT22;3835;48.850;8.938;2022-07-29T03:28:58;17.50;99.90
7588;DHT22;3835;48.850;8.938;2022-07-29T03:31:24;17.50;99.90
7588;DHT22;3835;48.850;8.938;2022-07-29T03:33:51;17.40;99.90
7588;DHT22;3835;48.850;8.938;2022-07-29T03:36:18;17.40;99.90
7588;DHT22;3835;48.850;8.938;2022-07-29T03:38:47;17.30;99.90
7588;DHT22;3835;48.850;8.938;2022-07-29T03:41:15;17.20;99.90
7588;DHT22;3835;48.850;8.938;2022-07-29T03:43:43;17.20;99.90
7588;DHT22;3835;48.850;8.938;2022-07-29T03:46:11;17.10;99.90
7588;DHT22;3835;48.850;8.938;2022-07-29T03:48:42;17.10;99.90
7588;DHT22;3835;48.850;8.938;2022-07-29T03:51:13;17.00;99.90
7588;DHT22;3835;48.850;8.938;2022-07-29T03:53:40;17.00;99.90
7588;DHT22;3835;48.850;8.938;2022-07-29T03:56:09;16.90;99.90
7588;DHT22;3835;48.850;8.938;2022-07-29T03:58:38;17.00;99.90
7588;DHT22;3835;48.850;8.938;2022-07-29T04:01:05;17.00;99.90
7588;DHT22;3835;48.850;8.938;2022-07-29T04:03:32;17.00;99.90
7588;DHT22;3835;48.850;8.938;2022-07-29T04:06:00;17.10;99.90
7588;DHT22;3835;48.850;8.938;2022-07-29T04:08:27;17.20;99.90
7588;DHT22;3835;48.850;8.938;2022-07-29T04:10:54;17.20;99.90
7588;DHT22;3835;48.850;8.938;2022-07-29T04:13:22;17.30;99.90
7588;DHT22;3835;48.850;8.938;2022-07-29T04:15:49;17.30;99.90
7588;DHT22;3835;48.850;8.938;2022-07-29T04:18:16;17.40;99.90
7588;DHT22;3835;48.850;8.938;2022-07-29T04:20:43;17.40;99.90
7588;DHT22;3835;48.850;8.938;2022-07-29T04:23:10;17.50;99.90
7588;DHT22;3835;48.850;8.938;2022-07-29T04:25:38;17.60;99.90
7588;DHT22;3835;48.850;8.938;2022-07-29T04:28:05;17.60;99.90
7588;DHT22;3835;48.850;8.938;2022-07-29T04:30:34;17.80;99.90
7588;DHT22;3835;48.850;8.938;2022-07-29T04:33:01;17.70;99.90
7588;DHT22;3835;48.850;8.938;2022-07-29T04:35:29;17.70;99.90
7588;DHT22;3835;48.850;8.938;2022-07-29T04:37:56;17.80;99.90
7588;DHT22;3835;48.850;8.938;2022-07-29T04:40:23;17.80;99.90
7588;DHT22;3835;48.850;8.938;2022-07-29T04:42:49;17.90;99.90
7588;DHT22;3835;48.850;8.938;2022-07-29T04:45:16;18.00;99.90
7588;DHT22;3835;48.850;8.938;2022-07-29T04:47:44;18.10;99.90
7588;DHT22;3835;48.850;8.938;2022-07-29T04:50:11;18.30;99.90
7588;DHT22;3835;48.850;8.938;2022-07-29T04:52:38;18.40;99.90
7588;DHT22;3835;48.850;8.938;2022-07-29T04:55:06;18.60;99.90
7588;DHT22;3835;48.850;8.938;2022-07-29T04:57:33;18.70;99.90
7588;DHT22;3835;48.850;8.938;2022-07-29T05:00:00;18.80;99.90
7588;DHT22;3835;48.850;8.938;2022-07-29T05:02:27;19.00;99.90
7588;DHT22;3835;48.850;8.938;2022-07-29T05:04:55;19.20;99.90
7588;DHT22;3835;48.850;8.938;2022-07-29T05:07:22;19.30;99.90
7588;DHT22;3835;48.850;8.938;2022-07-29T05:09:48;19.50;99.90
7588;DHT22;3835;48.850;8.938;2022-07-29T05:12:15;19.50;99.90
7588;DHT22;3835;48.850;8.938;2022-07-29T05:14:42;19.70;99.90
7588;DHT22;3835;48.850;8.938;2022-07-29T05:17:09;19.70;99.90
7588;DHT22;3835;48.850;8.938;2022-07-29T05:19:36;19.70;99.90
7588;DHT22;3835;48.850;8.938;2022-07-29T05:22:04;19.90;99.90
7588;DHT22;3835;48.850;8.938;2022-07-29T05:24:31;20.00;99.90
7588;DHT22;3835;48.850;8.938;2022-07-29T05:26:58;20.10;99.90
7588;DHT22;3835;48.850;8.938;2022-07-29T05:29:24;20.20;99.90
7588;DHT22;3835;48.850;8.938;2022-07-29T05:31:51;20.40;99.90
7588;DHT22;3835;48.850;8.938;2022-07-29T05:34:18;20.70;99.90
7588;DHT22;3835;48.850;8.938;2022-07-29T05:36:45;21.50;99.90
7588;DHT22;3835;48.850;8.938;2022-07-29T05:39:13;22.50;99.90
7588;DHT22;3835;48.850;8.938;2022-07-29T05:41:40;22.50;99.90
7588;DHT22;3835;48.850;8.938;2022-07-29T05:44:07;22.70;99.90
7588;DHT22;3835;48.850;8.938;2022-07-29T05:46:34;23.30;99.90
7588;DHT22;3835;48.850;8.938;2022-07-29T05:49:01;22.90;99.90
7588;DHT22;3835;48.850;8.938;2022-07-29T05:51:28;22.50;99.90
7588;DHT22;3835;48.850;8.938;2022-07-29T05:53:55;21.80;99.90
7588;DHT22;3835;48.850;8.938;2022-07-29T05:56:23;21.30;99.90
7588;DHT22;3835;48.850;8.938;2022-07-29T05:58:51;21.00;99.90
7588;DHT22;3835;48.850;8.938;2022-07-29T06:01:17;20.90;99.90
7588;DHT22;3835;48.850;8.938;2022-07-29T06:03:44;20.90;99.90
7588;DHT22;3835;48.850;8.938;2022-07-29T06:06:11;20.90;99.90
7588;DHT22;3835;48.850;8.938;2022-07-29T06:08:38;20.90;99.90
7588;DHT22;3835;48.850;8.938;2022-07-29T06:11:06;21.00;99.90
7588;DHT22;3835;48.850;8.938;2022-07-29T06:13:35;21.20;99.90
7588;DHT22;3835;48.850;8.938;2022-07-29T06:16:02;21.30;99.90
7588;DHT22;3835;48.850;8.938;2022-07-29T06:18:29;21.50;99.90
7588;DHT22;3835;48.850;8.938;2022-07-29T06:20:57;21.70;99.90
7588;DHT22;3835;48.850;8.938;2022-07-29T06:23:24;21.80;99.90
7588;DHT22;3835;48.850;8.938;2022-07-29T06:25:50;21.80;99.90
7588;DHT22;3835;48.850;8.938;2022-07-29T06:28:17;21.90;99.90
7588;DHT22;3835;48.850;8.938;2022-07-29T06:30:45;21.90;99.90
7588;DHT22;3835;48.850;8.938;2022-07-29T06:33:16;22.00;99.90
7588;DHT22;3835;48.850;8.938;2022-07-29T06:35:43;21.90;99.90
7588;DHT22;3835;48.850;8.938;2022-07-29T06:38:10;22.10;99.90
7588;DHT22;3835;48.850;8.938;2022-07-29T06:40:41;22.40;99.90
7588;DHT22;3835;48.850;8.938;2022-07-29T06:43:27;22.40;99.90
7588;DHT22;3835;48.850;8.938;2022-07-29T06:45:58;22.40;99.90
7588;DHT22;3835;48.850;8.938;2022-07-29T06:48:27;22.60;99.90
7588;DHT22;3835;48.850;8.938;2022-07-29T06:50:54;22.70;99.90
7588;DHT22;3835;48.850;8.938;2022-07-29T06:53:21;22.70;99.90
7588;DHT22;3835;48.850;8.938;2022-07-29T06:55:48;22.80;99.90
7588;DHT22;3835;48.850;8.938;2022-07-29T06:58:15;23.10;99.90
7588;DHT22;3835;48.850;8.938;2022-07-29T07:00:43;23.60;99.90
7588;DHT22;3835;48.850;8.938;2022-07-29T07:03:12;23.90;99.90
7588;DHT22;3835;48.850;8.938;2022-07-29T07:05:39;24.00;99.90
7588;DHT22;3835;48.850;8.938;2022-07-29T07:08:06;23.60;99.90
7588;DHT22;3835;48.850;8.938;2022-07-29T07:10:33;23.70;99.90
7588;DHT22;3835;48.850;8.938;2022-07-29T07:13:00;23.80;99.90
7588;DHT22;3835;48.850;8.938;2022-07-29T07:15:27;23.80;99.90
7588;DHT22;3835;48.850;8.938;2022-07-29T07:17:54;23.90;99.90
7588;DHT22;3835;48.850;8.938;2022-07-29T07:20:22;23.90;99.90
7588;DHT22;3835;48.850;8.938;2022-07-29T07:22:49;23.90;99.90
7588;DHT22;3835;48.850;8.938;2022-07-29T07:25:16;23.80;99.90
7588;DHT22;3835;48.850;8.938;2022-07-29T07:27:43;23.90;99.90
7588;DHT22;3835;48.850;8.938;2022-07-29T07:30:10;23.90;99.90
7588;DHT22;3835;48.850;8.938;2022-07-29T07:32:37;23.80;99.90
7588;DHT22;3835;48.850;8.938;2022-07-29T07:35:06;23.80;99.90
7588;DHT22;3835;48.850;8.938;2022-07-29T07:37:35;24.00;99.90
7588;DHT22;3835;48.850;8.938;2022-07-29T07:40:03;24.00;99.90
7588;DHT22;3835;48.850;8.938;2022-07-29T07:42:30;24.10;99.90
7588;DHT22;3835;48.850;8.938;2022-07-29T07:44:57;24.00;99.90
7588;DHT22;3835;48.850;8.938;2022-07-29T07:47:23;24.00;99.90
7588;DHT22;3835;48.850;8.938;2022-07-29T07:49:51;24.20;99.90
7588;DHT22;3835;48.850;8.938;2022-07-29T07:52:19;24.60;99.90
7588;DHT22;3835;48.850;8.938;2022-07-29T07:54:48;25.00;99.90
7588;DHT22;3835;48.850;8.938;2022-07-29T07:57:15;25.30;99.90
7588;DHT22;3835;48.850;8.938;2022-07-29T07:59:42;25.10;99.90
7588;DHT22;3835;48.850;8.938;2022-07-29T08:02:09;25.20;99.90
7588;DHT22;3835;48.850;8.938;2022-07-29T08:04:36;24.80;99.90
7588;DHT22;3835;48.850;8.938;2022-07-29T08:07:06;24.70;99.90
7588;DHT22;3835;48.850;8.938;2022-07-29T08:09:33;25.00;99.90
7588;DHT22;3835;48.850;8.938;2022-07-29T08:12:02;25.50;99.90
7588;DHT22;3835;48.850;8.938;2022-07-29T08:14:31;25.90;99.90
7588;DHT22;3835;48.850;8.938;2022-07-29T08:16:58;26.30;99.90
7588;DHT22;3835;48.850;8.938;2022-07-29T08:19:25;26.40;99.90
7588;DHT22;3835;48.850;8.938;2022-07-29T08:21:51;26.30;99.90
7588;DHT22;3835;48.850;8.938;2022-07-29T08:24:18;26.10;99.90
7588;DHT22;3835;48.850;8.938;2022-07-29T08:27:04;26.30;99.90
7588;DHT22;3835;48.850;8.938;2022-07-29T08:29:31;26.50;99.90
7588;DHT22;3835;48.850;8.938;2022-07-29T08:31:57;26.90;99.90
7588;DHT22;3835;48.850;8.938;2022-07-29T08:34:24;27.00;99.90
7588;DHT22;3835;48.850;8.938;2022-07-29T08:36:51;26.80;99.90
7588;DHT22;3835;48.850;8.938;2022-07-29T08:39:18;26.60;99.90
7588;DHT22;3835;48.850;8.938;2022-07-29T08:41:45;26.60;99.90
7588;DHT22;3835;48.850;8.938;2022-07-29T08:44:15;25.80;99.90
7588;DHT22;3835;48.850;8.938;2022-07-29T08:46:42;25.60;99.90
7588;DHT22;3835;48.850;8.938;2022-07-29T08:49:09;25.70;99.90
7588;DHT22;3835;48.850;8.938;2022-07-29T08:51:36;25.60;99.90
7588;DHT22;3835;48.850;8.938;2022-07-29T08:54:06;25.60;99.90
7588;DHT22;3835;48.850;8.938;2022-07-29T08:56:34;25.60;99.90
7588;DHT22;3835;48.850;8.938;2022-07-29T08:59:03;25.50;99.90
7588;DHT22;3835;48.850;8.938;2022-07-29T09:01:33;25.30;99.90
7588;DHT22;3835;48.850;8.938;2022-07-29T09:04:02;25.10;99.90
7588;DHT22;3835;48.850;8.938;2022-07-29T09:06:32;25.20;99.90
7588;DHT22;3835;48.850;8.938;2022-07-29T09:09:00;25.10;99.90
7588;DHT22;3835;48.850;8.938;2022-07-29T09:11:27;25.10;99.90
7588;DHT22;3835;48.850;8.938;2022-07-29T09:13:54;25.10;99.90
7588;DHT22;3835;48.850;8.938;2022-07-29T09:16:21;24.90;99.90
7588;DHT22;3835;48.850;8.938;2022-07-29T09:18:49;25.10;99.90
7588;DHT22;3835;48.850;8.938;2022-07-29T09:21:17;25.40;99.90
7588;DHT22;3835;48.850;8.938;2022-07-29T09:24:06;25.30;99.90
7588;DHT22;3835;48.850;8.938;2022-07-29T09:26:35;25.20;99.90
7588;DHT22;3835;48.850;8.938;2022-07-29T09:29:08;25.20;99.90
7588;DHT22;3835;48.850;8.938;2022-07-29T09:31:38;25.70;99.90
7588;DHT22;3835;48.850;8.938;2022-07-29T09:34:08;26.10;99.00
7588;DHT22;3835;48.850;8.938;2022-07-29T09:36:43;26.30;98.40
7588;DHT22;3835;48.850;8.938;2022-07-29T09:39:10;26.20;97.10
7588;DHT22;3835;48.850;8.938;2022-07-29T09:41:48;25.90;97.50
7588;DHT22;3835;48.850;8.938;2022-07-29T09:44:15;25.90;98.20
7588;DHT22;3835;48.850;8.938;2022-07-29T09:46:56;25.90;98.20
7588;DHT22;3835;48.850;8.938;2022-07-29T09:49:25;26.20;98.40
7588;DHT22;3835;48.850;8.938;2022-07-29T09:52:05;25.90;96.10
7588;DHT22;3835;48.850;8.938;2022-07-29T09:54:32;25.20;97.20
7588;DHT22;3835;48.850;8.938;2022-07-29T09:57:03;25.40;97.50
7588;DHT22;3835;48.850;8.938;2022-07-29T09:59:31;25.60;97.00
7588;DHT22;3835;48.850;8.938;2022-07-29T10:01:58;25.80;95.40
7588;DHT22;3835;48.850;8.938;2022-07-29T10:04:38;25.90;96.30
7588;DHT22;3835;48.850;8.938;2022-07-29T10:07:05;26.10;95.40
7588;DHT22;3835;48.850;8.938;2022-07-29T10:09:33;26.30;95.70
7588;DHT22;3835;48.850;8.938;2022-07-29T10:12:10;26.20;95.60
7588;DHT22;3835;48.850;8.938;2022-07-29T10:14:40;26.20;96.60
7588;DHT22;3835;48.850;8.938;2022-07-29T10:17:08;26.30;95.70
7588;DHT22;3835;48.850;8.938;2022-07-29T10:19:38;26.60;95.30
7588;DHT22;3835;48.850;8.938;2022-07-29T10:22:06;26.60;95.10
7588;DHT22;3835;48.850;8.938;2022-07-29T10:24:33;26.30;94.80
7588;DHT22;3835;48.850;8.938;2022-07-29T10:27:02;26.00;94.80
7588;DHT22;3835;48.850;8.938;2022-07-29T10:29:29;26.10;94.90
7588;DHT22;3835;48.850;8.938;2022-07-29T10:32:16;26.20;94.50
7588;DHT22;3835;48.850;8.938;2022-07-29T10:35:01;26.50;93.90
7588;DHT22;3835;48.850;8.938;2022-07-29T10:37:39;26.60;94.20
7588;DHT22;3835;48.850;8.938;2022-07-29T10:40:15;26.40;93.10
7588;DHT22;3835;48.850;8.938;2022-07-29T10:43:09;26.10;93.60
7588;DHT22;3835;48.850;8.938;2022-07-29T10:45:41;25.70;93.40
7588;DHT22;3835;48.850;8.938;2022-07-29T10:48:08;25.60;93.70
7588;DHT22;3835;48.850;8.938;2022-07-29T10:50:57;25.80;93.70
7588;DHT22;3835;48.850;8.938;2022-07-29T10:53:46;26.10;93.60
7588;DHT22;3835;48.850;8.938;2022-07-29T10:56:24;26.20;92.50
7588;DHT22;3835;48.850;8.938;2022-07-29T10:59:24;26.70;92.80
7588;DHT22;3835;48.850;8.938;2022-07-29T11:01:54;27.10;92.90
7588;DHT22;3835;48.850;8.938;2022-07-29T11:07:34;27.60;92.80
7588;DHT22;3835;48.850;8.938;2022-07-29T11:10:20;27.70;90.90
7588;DHT22;3835;48.850;8.938;2022-07-29T11:12:47;27.60;91.10
7588;DHT22;3835;48.850;8.938;2022-07-29T11:15:15;27.60;91.10
7588;DHT22;3835;48.850;8.938;2022-07-29T11:18:03;27.70;91.60
7588;DHT22;3835;48.850;8.938;2022-07-29T11:20:31;27.30;92.10
7588;DHT22;3835;48.850;8.938;2022-07-29T11:23:00;27.60;91.30
7588;DHT22;3835;48.850;8.938;2022-07-29T11:25:27;27.80;91.50
7588;DHT22;3835;48.850;8.938;2022-07-29T11:28:09;28.10;90.60
7588;DHT22;3835;48.850;8.938;2022-07-29T11:30:48;28.30;89.30
7588;DHT22;3835;48.850;8.938;2022-07-29T11:33:31;28.20;88.30
7588;DHT22;3835;48.850;8.938;2022-07-29T11:36:09;27.90;90.00
7588;DHT22;3835;48.850;8.938;2022-07-29T11:38:38;28.70;89.10
7588;DHT22;3835;48.850;8.938;2022-07-29T11:41:20;29.20;88.80
7588;DHT22;3835;48.850;8.938;2022-07-29T11:43:47;29.10;87.40
7588;DHT22;3835;48.850;8.938;2022-07-29T11:46:14;28.50;87.20
7588;DHT22;3835;48.850;8.938;2022-07-29T11:48:42;28.40;87.60
7588;DHT22;3835;48.850;8.938;2022-07-29T11:51:10;28.50;87.40
7588;DHT22;3835;48.850;8.938;2022-07-29T11:53:39;28.30;90.50
7588;DHT22;3835;48.850;8.938;2022-07-29T11:56:08;28.30;94.20
7588;DHT22;3835;48.850;8.938;2022-07-29T11:58:35;28.00;93.60
7588;DHT22;3835;48.850;8.938;2022-07-29T12:01:02;27.60;94.00
7588;DHT22;3835;48.850;8.938;2022-07-29T12:03:30;27.30;96.40
7588;DHT22;3835;48.850;8.938;2022-07-29T12:05:57;26.90;97.60
7588;DHT22;3835;48.850;8.938;2022-07-29T12:08:24;26.70;97.60
7588;DHT22;3835;48.850;8.938;2022-07-29T12:10:53;26.60;96.90
7588;DHT22;3835;48.850;8.938;2022-07-29T12:13:21;26.50;96.90
7588;DHT22;3835;48.850;8.938;2022-07-29T12:15:53;26.30;95.90
7588;DHT22;3835;48.850;8.938;2022-07-29T12:18:20;26.10;96.10
7588;DHT22;3835;48.850;8.938;2022-07-29T12:20:48;26.20;96.60
7588;DHT22;3835;48.850;8.938;2022-07-29T12:23:15;26.20;96.30
7588;DHT22;3835;48.850;8.938;2022-07-29T12:25:44;26.20;96.60
7588;DHT22;3835;48.850;8.938;2022-07-29T12:28:13;26.30;96.40
7588;DHT22;3835;48.850;8.938;2022-07-29T12:30:45;26.20;96.40
7588;DHT22;3835;48.850;8.938;2022-07-29T12:33:15;26.00;96.50
7588;DHT22;3835;48.850;8.938;2022-07-29T12:35:45;25.80;96.50
7588;DHT22;3835;48.850;8.938;2022-07-29T12:38:14;25.60;97.00
7588;DHT22;3835;48.850;8.938;2022-07-29T12:40:41;25.30;97.30
7588;DHT22;3835;48.850;8.938;2022-07-29T12:43:09;25.30;97.50
7588;DHT22;3835;48.850;8.938;2022-07-29T12:45:39;25.40;97.70
7588;DHT22;3835;48.850;8.938;2022-07-29T12:48:06;25.60;97.90
7588;DHT22;3835;48.850;8.938;2022-07-29T12:50:35;25.80;98.30
7588;DHT22;3835;48.850;8.938;2022-07-29T12:53:09;25.60;99.20
7588;DHT22;3835;48.850;8.938;2022-07-29T12:55:41;25.50;98.70
7588;DHT22;3835;48.850;8.938;2022-07-29T12:58:09;25.30;98.60
7588;DHT22;3835;48.850;8.938;2022-07-29T13:00:35;25.20;99.20
7588;DHT22;3835;48.850;8.938;2022-07-29T13:03:04;24.90;98.10
7588;DHT22;3835;48.850;8.938;2022-07-29T13:05:42;24.70;99.00
7588;DHT22;3835;48.850;8.938;2022-07-29T13:08:13;24.80;99.30
7588;DHT22;3835;48.850;8.938;2022-07-29T13:10:40;25.10;98.50
7588;DHT22;3835;48.850;8.938;2022-07-29T13:13:08;25.30;97.50
7588;DHT22;3835;48.850;8.938;2022-07-29T13:15:36;25.50;97.10
7588;DHT22;3835;48.850;8.938;2022-07-29T13:18:05;25.80;97.30
7588;DHT22;3835;48.850;8.938;2022-07-29T13:20:52;26.00;96.30
7588;DHT22;3835;48.850;8.938;2022-07-29T13:23:19;26.30;96.50
7588;DHT22;3835;48.850;8.938;2022-07-29T13:25:45;26.60;96.70
7588;DHT22;3835;48.850;8.938;2022-07-29T13:28:12;26.60;96.10
7588;DHT22;3835;48.850;8.938;2022-07-29T13:30:39;26.50;96.10
7588;DHT22;3835;48.850;8.938;2022-07-29T13:33:08;26.00;97.10
7588;DHT22;3835;48.850;8.938;2022-07-29T13:35:35;25.70;97.80
7588;DHT22;3835;48.850;8.938;2022-07-29T13:38:02;25.50;98.10
7588;DHT22;3835;48.850;8.938;2022-07-29T13:40:28;25.30;98.90
7588;DHT22;3835;48.850;8.938;2022-07-29T13:42:55;25.30;99.80
7588;DHT22;3835;48.850;8.938;2022-07-29T13:45:22;25.50;99.90
7588;DHT22;3835;48.850;8.938;2022-07-29T13:47:49;26.10;99.90
7588;DHT22;3835;48.850;8.938;2022-07-29T13:50:18;26.40;99.90
7588;DHT22;3835;48.850;8.938;2022-07-29T13:52:44;26.60;98.80
7588;DHT22;3835;48.850;8.938;2022-07-29T13:55:13;26.90;98.80
7588;DHT22;3835;48.850;8.938;2022-07-29T13:57:40;26.90;97.80
7588;DHT22;3835;48.850;8.938;2022-07-29T14:00:08;26.90;96.80
7588;DHT22;3835;48.850;8.938;2022-07-29T14:02:35;26.90;96.10
7588;DHT22;3835;48.850;8.938;2022-07-29T14:05:04;26.90;96.20
7588;DHT22;3835;48.850;8.938;2022-07-29T14:07:32;27.10;96.30
7588;DHT22;3835;48.850;8.938;2022-07-29T14:09:59;27.50;97.10
7588;DHT22;3835;48.850;8.938;2022-07-29T14:12:26;27.70;95.20
7588;DHT22;3835;48.850;8.938;2022-07-29T14:14:53;27.80;95.40
7588;DHT22;3835;48.850;8.938;2022-07-29T14:17:20;27.80;95.30
7588;DHT22;3835;48.850;8.938;2022-07-29T14:19:47;27.70;94.80
7588;DHT22;3835;48.850;8.938;2022-07-29T14:22:14;27.60;94.90
7588;DHT22;3835;48.850;8.938;2022-07-29T14:24:42;27.60;95.10
7588;DHT22;3835;48.850;8.938;2022-07-29T14:27:09;27.70;95.50
7588;DHT22;3835;48.850;8.938;2022-07-29T14:29:36;28.00;95.10
7588;DHT22;3835;48.850;8.938;2022-07-29T14:32:03;28.20;95.50
7588;DHT22;3835;48.850;8.938;2022-07-29T14:34:30;28.20;94.60
7588;DHT22;3835;48.850;8.938;2022-07-29T14:36:56;28.20;93.20
7588;DHT22;3835;48.850;8.938;2022-07-29T14:39:23;28.10;89.80
7588;DHT22;3835;48.850;8.938;2022-07-29T14:41:51;28.10;84.80
7588;DHT22;3835;48.850;8.938;2022-07-29T14:44:18;27.60;86.30
7588;DHT22;3835;48.850;8.938;2022-07-29T14:46:45;27.20;84.20
7588;DHT22;3835;48.850;8.938;2022-07-29T14:49:12;26.90;85.30
7588;DHT22;3835;48.850;8.938;2022-07-29T14:51:38;26.90;84.40
7588;DHT22;3835;48.850;8.938;2022-07-29T14:54:05;26.90;83.80
7588;DHT22;3835;48.850;8.938;2022-07-29T14:56:32;26.80;83.60
7588;DHT22;3835;48.850;8.938;2022-07-29T14:59:00;27.00;84.90
7588;DHT22;3835;48.850;8.938;2022-07-29T15:01:27;27.10;83.60
7588;DHT22;3835;48.850;8.938;2022-07-29T15:03:54;27.20;84.50
7588;DHT22;3835;48.850;8.938;2022-07-29T15:06:21;27.30;82.50
7588;DHT22;3835;48.850;8.938;2022-07-29T15:08:48;27.10;83.80
7588;DHT22;3835;48.850;8.938;2022-07-29T15:11:14;27.20;83.10
7588;DHT22;3835;48.850;8.938;2022-07-29T15:13:41;26.90;82.80
7588;DHT22;3835;48.850;8.938;2022-07-29T15:16:09;26.80;83.80
7588;DHT22;3835;48.850;8.938;2022-07-29T15:18:36;26.70;83.60
7588;DHT22;3835;48.850;8.938;2022-07-29T15:21:04;26.60;83.10
7588;DHT22;3835;48.850;8.938;2022-07-29T15:23:32;26.80;83.40
7588;DHT22;3835;48.850;8.938;2022-07-29T15:25:58;26.90;82.30
7588;DHT22;3835;48.850;8.938;2022-07-29T15:28:25;26.70;81.70
7588;DHT22;3835;48.850;8.938;2022-07-29T15:30:52;26.70;82.80
7588;DHT22;3835;48.850;8.938;2022-07-29T15:33:21;26.50;81.90
7588;DHT22;3835;48.850;8.938;2022-07-29T15:35:48;26.40;82.60
7588;DHT22;3835;48.850;8.938;2022-07-29T15:38:16;26.50;83.50
7588;DHT22;3835;48.850;8.938;2022-07-29T15:40:42;26.60;83.30
7588;DHT22;3835;48.850;8.938;2022-07-29T15:43:11;26.90;84.30
7588;DHT22;3835;48.850;8.938;2022-07-29T15:45:38;27.00;84.20
7588;DHT22;3835;48.850;8.938;2022-07-29T15:48:06;26.90;83.40
7588;DHT22;3835;48.850;8.938;2022-07-29T15:50:35;27.00;83.40
7588;DHT22;3835;48.850;8.938;2022-07-29T15:53:02;26.80;83.40
7588;DHT22;3835;48.850;8.938;2022-07-29T15:55:29;26.60;83.40
7588;DHT22;3835;48.850;8.938;2022-07-29T15:57:55;26.60;84.50
7588;DHT22;3835;48.850;8.938;2022-07-29T16:00:23;26.80;84.30
7588;DHT22;3835;48.850;8.938;2022-07-29T16:02:50;27.10;83.30
7588;DHT22;3835;48.850;8.938;2022-07-29T16:05:17;26.90;83.40
7588;DHT22;3835;48.850;8.938;2022-07-29T16:07:45;26.80;82.20
7588;DHT22;3835;48.850;8.938;2022-07-29T16:10:12;26.50;83.60
7588;DHT22;3835;48.850;8.938;2022-07-29T16:12:39;26.60;83.50
7588;DHT22;3835;48.850;8.938;2022-07-29T16:15:06;26.40;82.70
7588;DHT22;3835;48.850;8.938;2022-07-29T16:17:35;26.50;84.00
7588;DHT22;3835;48.850;8.938;2022-07-29T16:20:03;26.60;83.40